createdAt,value
2023-05-21T00:02:37.582Z,15.7
2023-05-21T00:07:43.682Z,15.4
2023-05-21T00:12:48.782Z,16.3
2023-05-21T00:17:54.887Z,15.4
2023-05-21T00:23:00.969Z,15.4
2023-05-21T00:28:07.087Z,15.4
2023-05-21T00:33:12.194Z,15.7
2023-05-21T00:38:17.306Z,16
2023-05-21T00:43:23.423Z,15.7
2023-05-21T00:48:29.495Z,15.7
2023-05-21T00:53:35.596Z,15.7
2023-05-21T00:58:41.680Z,15.4
2023-05-21T01:03:47.778Z,15.4
2023-05-21T01:08:53.884Z,15.4
2023-05-21T01:13:59.970Z,15.4
2023-05-21T01:19:06.060Z,15.4
2023-05-21T01:24:12.163Z,15.4
2023-05-21T01:29:18.258Z,15.7
2023-05-21T01:34:24.355Z,15.4
2023-05-21T01:39:30.472Z,15.4
2023-05-21T01:44:35.581Z,15.7
2023-05-21T01:49:41.671Z,15.4
2023-05-21T01:54:47.762Z,15.7
2023-05-21T01:59:53.852Z,15.4
2023-05-21T02:04:59.971Z,15.4
2023-05-21T02:10:06.063Z,15.7
2023-05-21T02:15:11.190Z,15.4
2023-05-21T02:20:16.275Z,15.7
2023-05-21T02:25:22.397Z,15.7
2023-05-21T02:30:28.486Z,15.4
2023-05-21T02:35:34.573Z,15.4
2023-05-21T02:40:40.671Z,15.4
2023-05-21T02:45:46.786Z,15.4
2023-05-21T02:50:52.878Z,15.4
2023-05-21T02:55:58.967Z,15.4
2023-05-21T03:01:05.050Z,15
2023-05-21T03:06:11.178Z,15.7
2023-05-21T03:11:17.247Z,15.4
2023-05-21T03:16:23.335Z,15
2023-05-21T03:21:29.442Z,15.4
2023-05-21T03:26:34.556Z,15
2023-05-21T03:31:40.664Z,15
2023-05-21T03:36:46.758Z,15
2023-05-21T03:41:52.873Z,15.4
2023-05-21T03:46:58.951Z,15
2023-05-21T03:52:05.041Z,15.4
2023-05-21T03:57:11.147Z,15.7
2023-05-21T04:02:17.245Z,15.4
2023-05-21T04:07:23.326Z,15
2023-05-21T04:12:29.428Z,15
2023-05-21T04:17:35.548Z,15
2023-05-21T04:22:41.617Z,15
2023-05-21T04:27:47.719Z,15
2023-05-21T04:32:52.830Z,15
2023-05-21T04:37:58.911Z,15
2023-05-21T04:43:05.007Z,16
2023-05-21T04:48:11.125Z,15
2023-05-21T04:53:16.242Z,14.7
2023-05-21T04:58:22.316Z,15
2023-05-21T05:03:28.423Z,15.4
2023-05-21T05:08:34.517Z,14.7
2023-05-21T05:13:40.617Z,15.4
2023-05-21T05:18:46.719Z,15
2023-05-21T05:23:52.816Z,15.7
2023-05-21T05:28:58.921Z,15.4
2023-05-21T05:34:05.013Z,15
2023-05-21T05:39:11.104Z,15
2023-05-21T05:44:17.211Z,14.7
2023-05-21T05:49:23.295Z,14.7
2023-05-21T05:54:29.383Z,15
2023-05-21T05:59:34.503Z,14.7
2023-05-21T06:04:40.590Z,14.7
2023-05-21T06:09:46.681Z,15.4
2023-05-21T06:14:52.786Z,15
2023-05-21T06:19:58.888Z,15
2023-05-21T06:25:04.979Z,15.4
2023-05-21T06:30:11.084Z,15
2023-05-21T06:35:17.165Z,14.7
2023-05-21T06:40:23.275Z,15.4
2023-05-21T06:45:29.358Z,15
2023-05-21T06:50:35.462Z,15
2023-05-21T06:55:41.537Z,15
2023-05-21T07:00:47.654Z,15
2023-05-21T07:05:52.747Z,15
2023-05-21T07:10:58.844Z,15
2023-05-21T07:16:04.960Z,15.4
2023-05-21T07:21:11.034Z,15
2023-05-21T07:26:17.142Z,15
2023-05-21T07:31:23.218Z,15.4
2023-05-21T07:36:29.313Z,15
2023-05-21T07:41:35.424Z,15
2023-05-21T07:46:41.533Z,15
2023-05-21T07:51:47.624Z,14.7
2023-05-21T07:56:53.724Z,15
2023-05-21T08:01:59.819Z,15.4
2023-05-21T08:07:05.901Z,15
2023-05-21T08:12:11.014Z,15.4
2023-05-21T08:17:17.110Z,15.4
2023-05-21T08:22:23.211Z,16
2023-05-21T08:27:29.299Z,15
2023-05-21T08:32:35.410Z,15
2023-05-21T08:37:41.497Z,15
2023-05-21T08:42:47.592Z,15.4
2023-05-21T08:47:53.704Z,15.4
2023-05-21T08:52:59.829Z,15.4
2023-05-21T08:58:05.905Z,15
2023-05-21T09:03:11.973Z,15.4
2023-05-21T09:08:18.072Z,15.4
2023-05-21T09:13:24.162Z,15.4
2023-05-21T09:18:29.282Z,15.4
2023-05-21T09:23:35.439Z,15.7
2023-05-21T09:28:41.473Z,15.7
2023-05-21T09:33:47.563Z,15.7
2023-05-21T09:38:53.782Z,15.4
2023-05-21T09:43:59.766Z,15.7
2023-05-21T09:49:05.862Z,15.7
2023-05-21T09:54:12.001Z,15.7
2023-05-21T09:59:18.058Z,15.7
2023-05-21T10:04:24.141Z,15.7
2023-05-21T10:09:30.244Z,15.7
2023-05-21T10:14:36.322Z,16.3
2023-05-21T10:19:42.439Z,16.3
2023-05-21T10:24:47.549Z,15.7
2023-05-21T10:29:53.634Z,16.3
2023-05-21T10:34:59.843Z,16
2023-05-21T10:40:05.967Z,15.4
2023-05-21T10:45:11.942Z,16.3
2023-05-21T10:50:18.043Z,16
2023-05-21T10:55:24.130Z,16
2023-05-21T11:00:30.230Z,16
2023-05-21T11:05:36.328Z,16.3
2023-05-21T11:10:42.424Z,16
2023-05-21T11:15:48.514Z,16.3
2023-05-21T11:20:54.630Z,16.3
2023-05-21T11:26:00.720Z,16.3
2023-05-21T11:31:05.846Z,16.3
2023-05-21T11:36:11.939Z,16.3
2023-05-21T11:41:18.022Z,16.3
2023-05-21T11:46:24.122Z,16.7
2023-05-21T11:51:30.222Z,16.7
2023-05-21T11:56:36.316Z,16.7
2023-05-21T12:01:42.415Z,16.7
2023-05-21T12:06:48.511Z,17
2023-05-21T12:11:54.629Z,16.7
2023-05-21T12:17:00.708Z,16.7
2023-05-21T12:22:06.821Z,16.3
2023-05-21T12:27:12.911Z,17.3
2023-05-21T12:32:19.009Z,16.7
2023-05-21T12:37:24.154Z,16.7
2023-05-21T12:42:30.211Z,16.7
2023-05-21T12:47:36.298Z,17.3
2023-05-21T12:52:42.565Z,17
2023-05-21T12:57:48.496Z,17
2023-05-21T13:02:54.604Z,17.3
2023-05-21T13:08:00.695Z,17
2023-05-21T13:13:06.796Z,17.6
2023-05-21T13:18:12.900Z,17
2023-05-21T13:23:19.029Z,17.3
2023-05-21T13:28:25.089Z,17.3
2023-05-21T13:33:31.213Z,17
2023-05-21T13:38:37.267Z,17.3
2023-05-21T13:43:42.401Z,17.9
2023-05-21T13:48:48.531Z,17.6
2023-05-21T13:53:54.568Z,17.9
2023-05-21T13:59:00.682Z,17.3
2023-05-21T14:04:06.788Z,17.3
2023-05-21T14:09:12.848Z,17.6
2023-05-21T14:14:18.972Z,17.6
2023-05-21T14:19:25.058Z,17.6
2023-05-21T14:24:31.157Z,17.6
2023-05-21T14:29:37.289Z,17.6
2023-05-21T14:34:43.339Z,17.6
2023-05-21T14:39:49.449Z,17.9
2023-05-21T14:44:55.556Z,18.3
2023-05-21T14:50:00.666Z,17.9
2023-05-21T14:55:06.751Z,17.9
2023-05-21T15:00:12.839Z,17.9
2023-05-21T15:05:18.953Z,17.6
2023-05-21T15:10:25.040Z,17.6
2023-05-21T15:15:31.129Z,18.3
2023-05-21T15:20:37.218Z,18.6
2023-05-21T15:25:43.308Z,17.9
2023-05-21T15:30:49.515Z,17.9
2023-05-21T15:35:55.523Z,17.6
2023-05-21T15:41:01.694Z,17.9
2023-05-21T15:46:07.718Z,17.9
2023-05-21T15:51:13.817Z,17.9
2023-05-21T15:56:18.986Z,17.9
2023-05-21T16:01:25.028Z,17.9
2023-05-21T16:06:31.111Z,18.9
2023-05-21T16:11:37.218Z,17.9
2023-05-21T16:16:43.310Z,18.3
2023-05-21T16:21:49.401Z,17.9
2023-05-21T16:26:55.494Z,18.3
2023-05-21T16:32:01.611Z,17.9
2023-05-21T16:37:07.690Z,17.6
2023-05-21T16:42:13.784Z,18.3
2023-05-21T16:47:19.888Z,18.3
2023-05-21T16:52:25.984Z,17.9
2023-05-21T16:57:32.144Z,17.9
2023-05-21T17:02:37.185Z,17.9
2023-05-21T17:07:43.287Z,17.9
2023-05-21T17:12:49.425Z,18.3
2023-05-21T17:17:55.465Z,17.9
2023-05-21T17:23:01.557Z,17.9
2023-05-21T17:28:07.664Z,17.9
2023-05-21T17:33:13.766Z,17.9
2023-05-21T17:38:19.864Z,17.9
2023-05-21T17:43:25.937Z,18.9
2023-05-21T17:48:32.024Z,17.9
2023-05-21T17:53:38.152Z,18.3
2023-05-21T17:58:44.233Z,18.6
2023-05-21T18:03:50.320Z,17.9
2023-05-21T18:08:55.431Z,18.6
2023-05-21T18:14:01.672Z,17.9
2023-05-21T18:19:07.636Z,17.9
2023-05-21T18:24:13.711Z,18.3
2023-05-21T18:29:19.828Z,17.9
2023-05-21T18:34:25.917Z,17.9
2023-05-21T18:39:32.025Z,17.9
2023-05-21T18:44:38.098Z,17.9
2023-05-21T18:49:44.343Z,17.9
2023-05-21T18:54:50.368Z,17.9
2023-05-21T18:59:56.458Z,18.3
2023-05-21T19:05:02.494Z,17.9
2023-05-21T19:10:08.571Z,18.6
2023-05-21T19:15:13.693Z,17.6
2023-05-21T19:20:19.868Z,18.3
2023-05-21T19:25:25.867Z,17.9
2023-05-21T19:30:31.983Z,17.6
2023-05-21T19:35:38.084Z,17.9
2023-05-21T19:40:44.269Z,17.6
2023-05-21T19:45:50.268Z,17.9
2023-05-21T19:50:56.366Z,17.9
2023-05-21T19:56:02.477Z,17.9
2023-05-21T20:01:08.547Z,17.6
2023-05-21T20:06:14.673Z,17.9
2023-05-21T20:11:20.753Z,17.6
2023-05-21T20:16:26.838Z,18.3
2023-05-21T20:21:31.966Z,17.9
2023-05-21T20:26:38.050Z,17.9
2023-05-21T20:31:44.139Z,17.6
2023-05-21T20:36:50.231Z,17.6
2023-05-21T20:41:56.334Z,17.6
2023-05-21T20:47:02.418Z,17.6
2023-05-21T20:52:08.549Z,17.9
2023-05-21T21:02:20.693Z,17.6
2023-05-21T21:07:26.797Z,17.6
2023-05-21T21:12:33.030Z,17.6
2023-05-21T21:17:38.981Z,17.6
2023-05-21T21:22:45.068Z,17.9
2023-05-21T21:27:50.186Z,17.6
2023-05-21T21:32:56.272Z,17.6
2023-05-21T21:38:02.419Z,17.9
2023-05-21T21:43:08.494Z,17.9
2023-05-21T21:48:14.583Z,17.6
2023-05-21T21:53:20.700Z,17.3
2023-05-21T21:58:25.791Z,17.6
2023-05-21T22:03:31.896Z,17.9
2023-05-21T22:08:38.116Z,17.6
2023-05-21T22:13:44.083Z,17.3
2023-05-21T22:18:50.188Z,17.6
2023-05-21T22:23:56.289Z,17.3
2023-05-21T22:29:02.377Z,17.3
2023-05-21T22:34:08.481Z,17.3
2023-05-21T22:44:20.668Z,17.9
2023-05-21T22:49:26.755Z,17.6
2023-05-21T22:54:32.861Z,17.3
2023-05-21T22:59:38.966Z,17.3
2023-05-21T23:04:44.080Z,17.3
2023-05-21T23:09:50.200Z,17.3
2023-05-21T23:14:56.272Z,17.3
2023-05-21T23:20:02.387Z,17.3
2023-05-21T23:25:08.524Z,17.6
2023-05-21T23:30:14.578Z,17.3
2023-05-21T23:35:20.640Z,17.3
2023-05-21T23:40:26.783Z,17
2023-05-21T23:45:32.862Z,17.3
2023-05-21T23:50:39.035Z,17.3
2023-05-21T23:55:45.019Z,17.9
